sensor_id;sensor_type;location;lat;lon;timestamp;P1;durP1;ratioP1;P2;durP2;ratioP2
40931;SDS011;36257;46.052;12.540;2022-11-09T00:02:11;19.30;;;13.35;;
40931;SDS011;36257;46.052;12.540;2022-11-09T00:04:36;19.92;;;13.05;;
40931;SDS011;36257;46.052;12.540;2022-11-09T00:07:02;16.80;;;12.82;;
40931;SDS011;36257;46.052;12.540;2022-11-09T00:09:28;18.70;;;12.60;;
40931;SDS011;36257;46.052;12.540;2022-11-09T00:11:53;18.48;;;12.52;;
40931;SDS011;36257;46.052;12.540;2022-11-09T00:14:19;17.27;;;12.75;;
40931;SDS011;36257;46.052;12.540;2022-11-09T00:16:45;19.77;;;14.18;;
40931;SDS011;36257;46.052;12.540;2022-11-09T00:19:10;21.63;;;15.43;;
40931;SDS011;36257;46.052;12.540;2022-11-09T00:21:37;20.52;;;13.23;;
40931;SDS011;36257;46.052;12.540;2022-11-09T00:24:02;18.63;;;13.07;;
40931;SDS011;36257;46.052;12.540;2022-11-09T00:26:28;21.80;;;13.85;;
40931;SDS011;36257;46.052;12.540;2022-11-09T00:28:54;18.73;;;12.57;;
40931;SDS011;36257;46.052;12.540;2022-11-09T00:31:20;20.92;;;14.65;;
40931;SDS011;36257;46.052;12.540;2022-11-09T00:33:47;21.30;;;14.40;;
40931;SDS011;36257;46.052;12.540;2022-11-09T00:36:14;23.65;;;13.93;;
40931;SDS011;36257;46.052;12.540;2022-11-09T00:38:40;19.63;;;13.85;;
40931;SDS011;36257;46.052;12.540;2022-11-09T00:41:07;19.50;;;13.27;;
40931;SDS011;36257;46.052;12.540;2022-11-09T00:43:34;20.88;;;13.07;;
40931;SDS011;36257;46.052;12.540;2022-11-09T00:46:00;23.33;;;14.45;;
40931;SDS011;36257;46.052;12.540;2022-11-09T00:48:26;20.40;;;13.20;;
40931;SDS011;36257;46.052;12.540;2022-11-09T00:50:52;22.08;;;13.80;;
40931;SDS011;36257;46.052;12.540;2022-11-09T00:53:18;20.08;;;13.98;;
40931;SDS011;36257;46.052;12.540;2022-11-09T00:58:21;22.98;;;12.70;;
40931;SDS011;36257;46.052;12.540;2022-11-09T01:00:47;18.70;;;13.70;;
40931;SDS011;36257;46.052;12.540;2022-11-09T01:03:12;19.85;;;13.32;;
40931;SDS011;36257;46.052;12.540;2022-11-09T01:05:38;19.20;;;12.48;;
40931;SDS011;36257;46.052;12.540;2022-11-09T01:08:04;20.25;;;13.27;;
40931;SDS011;36257;46.052;12.540;2022-11-09T01:10:30;20.75;;;14.07;;
40931;SDS011;36257;46.052;12.540;2022-11-09T01:12:56;19.85;;;13.57;;
40931;SDS011;36257;46.052;12.540;2022-11-09T01:15:21;18.92;;;13.93;;
40931;SDS011;36257;46.052;12.540;2022-11-09T01:17:47;19.23;;;13.05;;
40931;SDS011;36257;46.052;12.540;2022-11-09T01:20:14;19.70;;;13.52;;
40931;SDS011;36257;46.052;12.540;2022-11-09T01:22:40;21.25;;;14.82;;
40931;SDS011;36257;46.052;12.540;2022-11-09T01:25:06;22.05;;;13.63;;
40931;SDS011;36257;46.052;12.540;2022-11-09T01:27:32;21.77;;;13.82;;
40931;SDS011;36257;46.052;12.540;2022-11-09T01:29:58;19.25;;;13.45;;
40931;SDS011;36257;46.052;12.540;2022-11-09T01:32:24;20.33;;;13.60;;
40931;SDS011;36257;46.052;12.540;2022-11-09T01:34:49;18.33;;;12.98;;
40931;SDS011;36257;46.052;12.540;2022-11-09T01:37:15;18.52;;;13.02;;
40931;SDS011;36257;46.052;12.540;2022-11-09T01:39:40;23.25;;;13.40;;
40931;SDS011;36257;46.052;12.540;2022-11-09T01:42:06;21.77;;;14.80;;
40931;SDS011;36257;46.052;12.540;2022-11-09T01:44:33;17.45;;;12.93;;
40931;SDS011;36257;46.052;12.540;2022-11-09T01:47:05;18.48;;;12.95;;
40931;SDS011;36257;46.052;12.540;2022-11-09T01:49:42;18.05;;;12.55;;
40931;SDS011;36257;46.052;12.540;2022-11-09T01:54:43;17.08;;;12.52;;
40931;SDS011;36257;46.052;12.540;2022-11-09T01:57:17;17.63;;;11.73;;
40931;SDS011;36257;46.052;12.540;2022-11-09T01:59:48;17.98;;;12.43;;
40931;SDS011;36257;46.052;12.540;2022-11-09T02:02:18;15.65;;;11.68;;
40931;SDS011;36257;46.052;12.540;2022-11-09T02:04:49;16.48;;;11.70;;
40931;SDS011;36257;46.052;12.540;2022-11-09T02:07:19;17.00;;;11.90;;
40931;SDS011;36257;46.052;12.540;2022-11-09T02:09:52;15.07;;;11.70;;
40931;SDS011;36257;46.052;12.540;2022-11-09T02:12:25;17.35;;;11.90;;
40931;SDS011;36257;46.052;12.540;2022-11-09T02:14:53;19.25;;;12.88;;
40931;SDS011;36257;46.052;12.540;2022-11-09T02:17:20;20.77;;;12.90;;
40931;SDS011;36257;46.052;12.540;2022-11-09T02:19:46;16.17;;;12.40;;
40931;SDS011;36257;46.052;12.540;2022-11-09T02:22:11;18.88;;;11.75;;
40931;SDS011;36257;46.052;12.540;2022-11-09T02:24:37;17.13;;;11.77;;
40931;SDS011;36257;46.052;12.540;2022-11-09T02:27:04;20.85;;;12.27;;
40931;SDS011;36257;46.052;12.540;2022-11-09T02:29:31;15.63;;;11.18;;
40931;SDS011;36257;46.052;12.540;2022-11-09T02:32:04;16.23;;;11.65;;
40931;SDS011;36257;46.052;12.540;2022-11-09T02:34:34;19.60;;;12.43;;
40931;SDS011;36257;46.052;12.540;2022-11-09T02:36:59;20.38;;;12.60;;
40931;SDS011;36257;46.052;12.540;2022-11-09T02:39:25;17.88;;;12.45;;
40931;SDS011;36257;46.052;12.540;2022-11-09T02:41:59;21.13;;;14.35;;
40931;SDS011;36257;46.052;12.540;2022-11-09T02:44:26;20.08;;;14.55;;
40931;SDS011;36257;46.052;12.540;2022-11-09T02:46:54;19.05;;;12.90;;
40931;SDS011;36257;46.052;12.540;2022-11-09T02:49:19;20.20;;;12.55;;
40931;SDS011;36257;46.052;12.540;2022-11-09T02:51:45;20.60;;;13.20;;
40931;SDS011;36257;46.052;12.540;2022-11-09T02:54:11;22.50;;;14.32;;
40931;SDS011;36257;46.052;12.540;2022-11-09T02:56:36;19.23;;;13.52;;
40931;SDS011;36257;46.052;12.540;2022-11-09T02:59:02;18.02;;;12.48;;
40931;SDS011;36257;46.052;12.540;2022-11-09T03:01:28;21.20;;;13.45;;
40931;SDS011;36257;46.052;12.540;2022-11-09T03:03:54;22.52;;;13.45;;
40931;SDS011;36257;46.052;12.540;2022-11-09T03:06:19;19.10;;;12.65;;
40931;SDS011;36257;46.052;12.540;2022-11-09T03:08:57;22.77;;;13.65;;
40931;SDS011;36257;46.052;12.540;2022-11-09T03:11:24;18.30;;;12.02;;
40931;SDS011;36257;46.052;12.540;2022-11-09T03:13:51;16.10;;;12.27;;
40931;SDS011;36257;46.052;12.540;2022-11-09T03:16:16;20.48;;;13.05;;
40931;SDS011;36257;46.052;12.540;2022-11-09T03:18:42;19.98;;;11.77;;
40931;SDS011;36257;46.052;12.540;2022-11-09T03:21:07;16.95;;;11.48;;
40931;SDS011;36257;46.052;12.540;2022-11-09T03:23:33;18.83;;;11.45;;
40931;SDS011;36257;46.052;12.540;2022-11-09T03:25:58;17.00;;;11.68;;
40931;SDS011;36257;46.052;12.540;2022-11-09T03:28:24;17.23;;;11.35;;
40931;SDS011;36257;46.052;12.540;2022-11-09T03:30:50;15.65;;;11.30;;
40931;SDS011;36257;46.052;12.540;2022-11-09T03:33:16;17.02;;;11.38;;
40931;SDS011;36257;46.052;12.540;2022-11-09T03:35:41;14.45;;;9.88;;
40931;SDS011;36257;46.052;12.540;2022-11-09T03:38:08;13.88;;;9.50;;
40931;SDS011;36257;46.052;12.540;2022-11-09T03:40:34;15.40;;;10.45;;
40931;SDS011;36257;46.052;12.540;2022-11-09T03:43:00;13.40;;;9.70;;
40931;SDS011;36257;46.052;12.540;2022-11-09T03:45:26;14.02;;;9.23;;
40931;SDS011;36257;46.052;12.540;2022-11-09T03:47:54;15.45;;;10.15;;
40931;SDS011;36257;46.052;12.540;2022-11-09T03:50:24;13.10;;;9.50;;
40931;SDS011;36257;46.052;12.540;2022-11-09T03:52:51;12.02;;;9.20;;
40931;SDS011;36257;46.052;12.540;2022-11-09T03:55:17;16.33;;;9.27;;
40931;SDS011;36257;46.052;12.540;2022-11-09T03:57:43;13.48;;;9.05;;
40931;SDS011;36257;46.052;12.540;2022-11-09T04:00:10;11.05;;;8.23;;
40931;SDS011;36257;46.052;12.540;2022-11-09T04:02:37;10.35;;;7.43;;
40931;SDS011;36257;46.052;12.540;2022-11-09T04:05:03;10.60;;;7.85;;
40931;SDS011;36257;46.052;12.540;2022-11-09T04:07:29;9.98;;;6.93;;
40931;SDS011;36257;46.052;12.540;2022-11-09T04:09:55;9.55;;;6.78;;
40931;SDS011;36257;46.052;12.540;2022-11-09T04:12:21;9.95;;;7.90;;
40931;SDS011;36257;46.052;12.540;2022-11-09T04:14:47;9.27;;;7.15;;
40931;SDS011;36257;46.052;12.540;2022-11-09T04:17:12;9.70;;;6.45;;
40931;SDS011;36257;46.052;12.540;2022-11-09T04:19:38;9.95;;;7.70;;
40931;SDS011;36257;46.052;12.540;2022-11-09T04:22:04;8.48;;;6.93;;
40931;SDS011;36257;46.052;12.540;2022-11-09T04:24:29;10.32;;;7.43;;
40931;SDS011;36257;46.052;12.540;2022-11-09T04:26:55;11.93;;;7.63;;
40931;SDS011;36257;46.052;12.540;2022-11-09T04:29:20;8.68;;;6.93;;
40931;SDS011;36257;46.052;12.540;2022-11-09T04:31:49;10.38;;;7.30;;
40931;SDS011;36257;46.052;12.540;2022-11-09T04:34:15;7.90;;;7.10;;
40931;SDS011;36257;46.052;12.540;2022-11-09T04:36:42;7.55;;;6.60;;
40931;SDS011;36257;46.052;12.540;2022-11-09T04:39:08;9.25;;;7.20;;
40931;SDS011;36257;46.052;12.540;2022-11-09T04:41:34;9.68;;;6.90;;
40931;SDS011;36257;46.052;12.540;2022-11-09T04:43:59;9.85;;;6.32;;
40931;SDS011;36257;46.052;12.540;2022-11-09T04:46:26;6.90;;;6.13;;
40931;SDS011;36257;46.052;12.540;2022-11-09T04:48:52;7.65;;;5.78;;
40931;SDS011;36257;46.052;12.540;2022-11-09T04:51:17;10.13;;;7.03;;
40931;SDS011;36257;46.052;12.540;2022-11-09T04:53:43;7.53;;;5.75;;
40931;SDS011;36257;46.052;12.540;2022-11-09T04:56:09;6.97;;;6.28;;
40931;SDS011;36257;46.052;12.540;2022-11-09T04:58:35;7.03;;;5.28;;
40931;SDS011;36257;46.052;12.540;2022-11-09T05:01:09;6.78;;;5.63;;
40931;SDS011;36257;46.052;12.540;2022-11-09T05:03:36;7.80;;;5.95;;
40931;SDS011;36257;46.052;12.540;2022-11-09T05:06:02;6.25;;;5.10;;
40931;SDS011;36257;46.052;12.540;2022-11-09T05:08:48;8.27;;;5.53;;
40931;SDS011;36257;46.052;12.540;2022-11-09T05:11:14;7.05;;;5.60;;
40931;SDS011;36257;46.052;12.540;2022-11-09T05:13:40;7.75;;;6.60;;
40931;SDS011;36257;46.052;12.540;2022-11-09T05:16:05;7.93;;;5.65;;
40931;SDS011;36257;46.052;12.540;2022-11-09T05:18:31;6.40;;;5.50;;
40931;SDS011;36257;46.052;12.540;2022-11-09T05:21:00;6.22;;;5.50;;
40931;SDS011;36257;46.052;12.540;2022-11-09T05:23:26;6.70;;;5.50;;
40931;SDS011;36257;46.052;12.540;2022-11-09T05:26:11;9.57;;;6.25;;
40931;SDS011;36257;46.052;12.540;2022-11-09T05:28:37;6.75;;;5.32;;
40931;SDS011;36257;46.052;12.540;2022-11-09T05:31:03;6.43;;;5.35;;
40931;SDS011;36257;46.052;12.540;2022-11-09T05:33:29;8.98;;;5.57;;
40931;SDS011;36257;46.052;12.540;2022-11-09T05:35:55;7.68;;;5.40;;
40931;SDS011;36257;46.052;12.540;2022-11-09T05:38:22;7.85;;;6.55;;
40931;SDS011;36257;46.052;12.540;2022-11-09T05:40:48;7.40;;;5.63;;
40931;SDS011;36257;46.052;12.540;2022-11-09T05:43:14;8.55;;;5.90;;
40931;SDS011;36257;46.052;12.540;2022-11-09T05:45:40;8.32;;;5.60;;
40931;SDS011;36257;46.052;12.540;2022-11-09T05:48:06;9.80;;;6.47;;
40931;SDS011;36257;46.052;12.540;2022-11-09T05:50:32;6.78;;;5.95;;
40931;SDS011;36257;46.052;12.540;2022-11-09T05:52:58;10.43;;;6.60;;
40931;SDS011;36257;46.052;12.540;2022-11-09T05:55:25;7.55;;;5.95;;
40931;SDS011;36257;46.052;12.540;2022-11-09T05:57:51;8.18;;;6.88;;
40931;SDS011;36257;46.052;12.540;2022-11-09T06:00:17;7.18;;;5.05;;
40931;SDS011;36257;46.052;12.540;2022-11-09T06:02:43;6.55;;;5.90;;
40931;SDS011;36257;46.052;12.540;2022-11-09T06:05:08;7.57;;;5.45;;
40931;SDS011;36257;46.052;12.540;2022-11-09T06:07:34;7.75;;;6.22;;
40931;SDS011;36257;46.052;12.540;2022-11-09T06:10:00;7.22;;;5.72;;
40931;SDS011;36257;46.052;12.540;2022-11-09T06:12:25;8.05;;;6.72;;
40931;SDS011;36257;46.052;12.540;2022-11-09T06:14:51;7.55;;;6.10;;
40931;SDS011;36257;46.052;12.540;2022-11-09T06:17:17;6.78;;;5.72;;
40931;SDS011;36257;46.052;12.540;2022-11-09T06:19:42;10.63;;;6.00;;
40931;SDS011;36257;46.052;12.540;2022-11-09T06:22:08;7.30;;;5.38;;
40931;SDS011;36257;46.052;12.540;2022-11-09T06:24:34;8.50;;;5.70;;
40931;SDS011;36257;46.052;12.540;2022-11-09T06:26:59;8.10;;;5.88;;
40931;SDS011;36257;46.052;12.540;2022-11-09T06:29:26;9.25;;;6.47;;
40931;SDS011;36257;46.052;12.540;2022-11-09T06:31:51;8.23;;;5.43;;
40931;SDS011;36257;46.052;12.540;2022-11-09T06:34:17;7.97;;;5.05;;
40931;SDS011;36257;46.052;12.540;2022-11-09T06:36:43;8.73;;;4.68;;
40931;SDS011;36257;46.052;12.540;2022-11-09T06:39:08;5.65;;;4.47;;
40931;SDS011;36257;46.052;12.540;2022-11-09T06:41:34;5.65;;;4.65;;
40931;SDS011;36257;46.052;12.540;2022-11-09T06:44:00;5.60;;;4.95;;
40931;SDS011;36257;46.052;12.540;2022-11-09T06:46:26;5.50;;;4.20;;
40931;SDS011;36257;46.052;12.540;2022-11-09T06:48:52;6.30;;;4.68;;
40931;SDS011;36257;46.052;12.540;2022-11-09T06:51:17;5.55;;;4.15;;
40931;SDS011;36257;46.052;12.540;2022-11-09T06:53:43;4.35;;;3.97;;
40931;SDS011;36257;46.052;12.540;2022-11-09T06:56:09;5.07;;;4.57;;
40931;SDS011;36257;46.052;12.540;2022-11-09T06:58:35;4.43;;;4.03;;
40931;SDS011;36257;46.052;12.540;2022-11-09T07:01:11;6.60;;;4.38;;
40931;SDS011;36257;46.052;12.540;2022-11-09T07:03:39;5.90;;;4.88;;
40931;SDS011;36257;46.052;12.540;2022-11-09T07:06:05;5.68;;;4.65;;
40931;SDS011;36257;46.052;12.540;2022-11-09T07:08:32;7.65;;;4.57;;
40931;SDS011;36257;46.052;12.540;2022-11-09T07:11:05;5.60;;;4.35;;
40931;SDS011;36257;46.052;12.540;2022-11-09T07:13:36;12.27;;;4.25;;
40931;SDS011;36257;46.052;12.540;2022-11-09T07:16:02;6.03;;;4.32;;
40931;SDS011;36257;46.052;12.540;2022-11-09T07:18:28;6.38;;;5.72;;
40931;SDS011;36257;46.052;12.540;2022-11-09T07:20:54;6.82;;;5.40;;
40931;SDS011;36257;46.052;12.540;2022-11-09T07:23:20;8.40;;;4.45;;
40931;SDS011;36257;46.052;12.540;2022-11-09T07:25:45;6.65;;;4.75;;
40931;SDS011;36257;46.052;12.540;2022-11-09T07:28:11;6.82;;;5.60;;
40931;SDS011;36257;46.052;12.540;2022-11-09T07:30:37;7.18;;;5.20;;
40931;SDS011;36257;46.052;12.540;2022-11-09T07:33:03;4.22;;;3.08;;
40931;SDS011;36257;46.052;12.540;2022-11-09T07:35:36;6.95;;;4.05;;
40931;SDS011;36257;46.052;12.540;2022-11-09T07:38:02;5.22;;;4.15;;
40931;SDS011;36257;46.052;12.540;2022-11-09T07:40:28;5.63;;;5.00;;
40931;SDS011;36257;46.052;12.540;2022-11-09T07:42:58;5.85;;;4.15;;
40931;SDS011;36257;46.052;12.540;2022-11-09T07:45:25;4.55;;;4.13;;
40931;SDS011;36257;46.052;12.540;2022-11-09T07:47:59;5.15;;;3.90;;
40931;SDS011;36257;46.052;12.540;2022-11-09T07:50:27;5.65;;;4.55;;
40931;SDS011;36257;46.052;12.540;2022-11-09T07:52:54;8.32;;;5.15;;
40931;SDS011;36257;46.052;12.540;2022-11-09T07:55:21;7.35;;;4.30;;
40931;SDS011;36257;46.052;12.540;2022-11-09T07:57:47;7.80;;;5.00;;
40931;SDS011;36257;46.052;12.540;2022-11-09T08:00:12;5.78;;;4.65;;
40931;SDS011;36257;46.052;12.540;2022-11-09T08:02:39;5.45;;;4.30;;
40931;SDS011;36257;46.052;12.540;2022-11-09T08:05:04;4.93;;;4.30;;
40931;SDS011;36257;46.052;12.540;2022-11-09T08:07:30;8.27;;;4.85;;
40931;SDS011;36257;46.052;12.540;2022-11-09T08:09:57;7.63;;;4.90;;
40931;SDS011;36257;46.052;12.540;2022-11-09T08:12:23;5.50;;;4.15;;
40931;SDS011;36257;46.052;12.540;2022-11-09T08:14:48;9.90;;;4.63;;
40931;SDS011;36257;46.052;12.540;2022-11-09T08:17:14;7.38;;;4.88;;
40931;SDS011;36257;46.052;12.540;2022-11-09T08:19:39;7.05;;;5.10;;
40931;SDS011;36257;46.052;12.540;2022-11-09T08:22:05;8.20;;;4.93;;
40931;SDS011;36257;46.052;12.540;2022-11-09T08:24:31;10.02;;;5.72;;
40931;SDS011;36257;46.052;12.540;2022-11-09T08:26:56;5.68;;;4.90;;
40931;SDS011;36257;46.052;12.540;2022-11-09T08:29:22;6.07;;;4.65;;
40931;SDS011;36257;46.052;12.540;2022-11-09T08:31:48;7.65;;;6.00;;
40931;SDS011;36257;46.052;12.540;2022-11-09T08:34:14;9.63;;;6.72;;
40931;SDS011;36257;46.052;12.540;2022-11-09T08:36:40;8.98;;;6.57;;
40931;SDS011;36257;46.052;12.540;2022-11-09T08:39:06;10.18;;;7.95;;
40931;SDS011;36257;46.052;12.540;2022-11-09T08:41:32;10.38;;;8.40;;
40931;SDS011;36257;46.052;12.540;2022-11-09T08:43:57;11.05;;;9.02;;
40931;SDS011;36257;46.052;12.540;2022-11-09T08:46:24;17.23;;;11.60;;
40931;SDS011;36257;46.052;12.540;2022-11-09T08:48:49;14.55;;;11.02;;
40931;SDS011;36257;46.052;12.540;2022-11-09T08:51:15;16.40;;;10.65;;
40931;SDS011;36257;46.052;12.540;2022-11-09T08:53:40;16.60;;;10.85;;
40931;SDS011;36257;46.052;12.540;2022-11-09T08:56:06;19.00;;;14.73;;
40931;SDS011;36257;46.052;12.540;2022-11-09T08:58:33;26.52;;;16.33;;
40931;SDS011;36257;46.052;12.540;2022-11-09T09:00:58;24.88;;;17.05;;
40931;SDS011;36257;46.052;12.540;2022-11-09T09:03:24;23.92;;;16.60;;
40931;SDS011;36257;46.052;12.540;2022-11-09T09:05:50;24.25;;;15.20;;
40931;SDS011;36257;46.052;12.540;2022-11-09T09:08:16;20.85;;;15.63;;
40931;SDS011;36257;46.052;12.540;2022-11-09T09:10:45;21.83;;;16.15;;
40931;SDS011;36257;46.052;12.540;2022-11-09T09:13:11;20.80;;;15.23;;
40931;SDS011;36257;46.052;12.540;2022-11-09T09:15:37;24.50;;;15.57;;
40931;SDS011;36257;46.052;12.540;2022-11-09T09:18:03;23.98;;;16.67;;
40931;SDS011;36257;46.052;12.540;2022-11-09T09:20:29;22.73;;;16.00;;
40931;SDS011;36257;46.052;12.540;2022-11-09T09:22:59;22.65;;;17.38;;
40931;SDS011;36257;46.052;12.540;2022-11-09T09:25:25;24.85;;;17.05;;
40931;SDS011;36257;46.052;12.540;2022-11-09T09:27:51;28.05;;;18.60;;
40931;SDS011;36257;46.052;12.540;2022-11-09T09:30:17;25.40;;;18.58;;
40931;SDS011;36257;46.052;12.540;2022-11-09T09:32:43;24.73;;;18.52;;
40931;SDS011;36257;46.052;12.540;2022-11-09T09:35:08;27.05;;;17.17;;
40931;SDS011;36257;46.052;12.540;2022-11-09T09:37:35;21.35;;;16.58;;
40931;SDS011;36257;46.052;12.540;2022-11-09T09:40:01;22.08;;;16.48;;
40931;SDS011;36257;46.052;12.540;2022-11-09T09:42:29;25.00;;;17.60;;
40931;SDS011;36257;46.052;12.540;2022-11-09T09:44:59;27.02;;;17.92;;
40931;SDS011;36257;46.052;12.540;2022-11-09T09:49:59;31.95;;;20.23;;
40931;SDS011;36257;46.052;12.540;2022-11-09T09:55:19;28.48;;;19.77;;
40931;SDS011;36257;46.052;12.540;2022-11-09T09:58:01;23.83;;;18.77;;
40931;SDS011;36257;46.052;12.540;2022-11-09T10:00:33;24.15;;;18.45;;
40931;SDS011;36257;46.052;12.540;2022-11-09T10:03:02;23.42;;;17.65;;
40931;SDS011;36257;46.052;12.540;2022-11-09T10:05:38;18.52;;;14.02;;
40931;SDS011;36257;46.052;12.540;2022-11-09T10:08:15;21.60;;;15.45;;
40931;SDS011;36257;46.052;12.540;2022-11-09T10:16:26;24.35;;;18.10;;
40931;SDS011;36257;46.052;12.540;2022-11-09T10:19:25;23.35;;;17.10;;
40931;SDS011;36257;46.052;12.540;2022-11-09T10:22:18;24.73;;;19.02;;
40931;SDS011;36257;46.052;12.540;2022-11-09T10:27:35;25.25;;;17.23;;
40931;SDS011;36257;46.052;12.540;2022-11-09T10:30:11;27.40;;;20.58;;
40931;SDS011;36257;46.052;12.540;2022-11-09T10:32:42;29.38;;;23.90;;
40931;SDS011;36257;46.052;12.540;2022-11-09T10:35:17;32.58;;;23.83;;
40931;SDS011;36257;46.052;12.540;2022-11-09T10:37:45;31.50;;;24.75;;
40931;SDS011;36257;46.052;12.540;2022-11-09T10:40:21;35.25;;;26.27;;
40931;SDS011;36257;46.052;12.540;2022-11-09T10:43:01;28.33;;;23.57;;
40931;SDS011;36257;46.052;12.540;2022-11-09T10:45:32;26.08;;;18.45;;
40931;SDS011;36257;46.052;12.540;2022-11-09T10:48:00;22.67;;;17.35;;
40931;SDS011;36257;46.052;12.540;2022-11-09T10:53:08;28.30;;;22.02;;
40931;SDS011;36257;46.052;12.540;2022-11-09T10:56:42;26.58;;;21.67;;
40931;SDS011;36257;46.052;12.540;2022-11-09T11:01:50;29.40;;;22.35;;
40931;SDS011;36257;46.052;12.540;2022-11-09T11:04:20;27.10;;;21.00;;
40931;SDS011;36257;46.052;12.540;2022-11-09T11:06:48;28.90;;;21.88;;
40931;SDS011;36257;46.052;12.540;2022-11-09T11:09:15;31.90;;;24.00;;
40931;SDS011;36257;46.052;12.540;2022-11-09T11:11:47;29.80;;;21.88;;
40931;SDS011;36257;46.052;12.540;2022-11-09T11:14:32;29.08;;;22.98;;
40931;SDS011;36257;46.052;12.540;2022-11-09T11:17:00;34.13;;;26.40;;
40931;SDS011;36257;46.052;12.540;2022-11-09T11:19:39;33.33;;;26.20;;
40931;SDS011;36257;46.052;12.540;2022-11-09T11:24:45;40.63;;;30.90;;
40931;SDS011;36257;46.052;12.540;2022-11-09T11:30:16;47.40;;;31.92;;
40931;SDS011;36257;46.052;12.540;2022-11-09T11:32:52;44.42;;;31.42;;
40931;SDS011;36257;46.052;12.540;2022-11-09T11:43:38;39.30;;;26.45;;
40931;SDS011;36257;46.052;12.540;2022-11-09T12:14:08;32.80;;;23.50;;
40931;SDS011;36257;46.052;12.540;2022-11-09T12:16:51;32.65;;;24.60;;
40931;SDS011;36257;46.052;12.540;2022-11-09T12:19:28;31.65;;;24.02;;
40931;SDS011;36257;46.052;12.540;2022-11-09T12:25:00;32.85;;;23.73;;
40931;SDS011;36257;46.052;12.540;2022-11-09T12:28:28;36.40;;;24.92;;
40931;SDS011;36257;46.052;12.540;2022-11-09T12:36:12;40.25;;;24.98;;
40931;SDS011;36257;46.052;12.540;2022-11-09T12:41:22;34.17;;;26.05;;
40931;SDS011;36257;46.052;12.540;2022-11-09T12:43:57;32.83;;;24.38;;
40931;SDS011;36257;46.052;12.540;2022-11-09T12:46:47;24.92;;;19.85;;
40931;SDS011;36257;46.052;12.540;2022-11-09T12:49:48;27.88;;;20.27;;
40931;SDS011;36257;46.052;12.540;2022-11-09T12:52:12;26.85;;;19.33;;
40931;SDS011;36257;46.052;12.540;2022-11-09T12:54:43;28.48;;;18.42;;
40931;SDS011;36257;46.052;12.540;2022-11-09T12:57:14;23.63;;;16.80;;
40931;SDS011;36257;46.052;12.540;2022-11-09T13:02:57;25.10;;;19.05;;
40931;SDS011;36257;46.052;12.540;2022-11-09T13:05:28;22.92;;;17.40;;
40931;SDS011;36257;46.052;12.540;2022-11-09T13:08:00;22.15;;;17.08;;
40931;SDS011;36257;46.052;12.540;2022-11-09T13:10:31;23.02;;;17.33;;
40931;SDS011;36257;46.052;12.540;2022-11-09T13:13:01;22.67;;;18.73;;
40931;SDS011;36257;46.052;12.540;2022-11-09T13:15:30;23.65;;;18.63;;
40931;SDS011;36257;46.052;12.540;2022-11-09T13:18:02;22.58;;;18.10;;
40931;SDS011;36257;46.052;12.540;2022-11-09T13:20:48;24.85;;;18.33;;
40931;SDS011;36257;46.052;12.540;2022-11-09T13:26:02;24.08;;;17.50;;
40931;SDS011;36257;46.052;12.540;2022-11-09T13:30:54;21.83;;;17.38;;
40931;SDS011;36257;46.052;12.540;2022-11-09T13:33:32;27.08;;;16.85;;
40931;SDS011;36257;46.052;12.540;2022-11-09T13:35:59;24.88;;;18.52;;
40931;SDS011;36257;46.052;12.540;2022-11-09T13:38:38;22.55;;;17.33;;
40931;SDS011;36257;46.052;12.540;2022-11-09T13:44:06;25.90;;;19.42;;
40931;SDS011;36257;46.052;12.540;2022-11-09T13:46:45;26.38;;;19.25;;
40931;SDS011;36257;46.052;12.540;2022-11-09T13:49:33;25.48;;;18.73;;
40931;SDS011;36257;46.052;12.540;2022-11-09T13:55:46;23.05;;;17.27;;
40931;SDS011;36257;46.052;12.540;2022-11-09T13:58:11;26.77;;;18.00;;
40931;SDS011;36257;46.052;12.540;2022-11-09T14:00:48;28.42;;;19.88;;
40931;SDS011;36257;46.052;12.540;2022-11-09T14:05:50;25.40;;;17.50;;
40931;SDS011;36257;46.052;12.540;2022-11-09T14:08:24;23.88;;;18.50;;
40931;SDS011;36257;46.052;12.540;2022-11-09T14:16:59;24.83;;;19.88;;
40931;SDS011;36257;46.052;12.540;2022-11-09T14:19:45;29.23;;;18.63;;
40931;SDS011;36257;46.052;12.540;2022-11-09T14:22:20;28.48;;;19.02;;
40931;SDS011;36257;46.052;12.540;2022-11-09T14:24:46;23.38;;;17.38;;
40931;SDS011;36257;46.052;12.540;2022-11-09T14:27:20;24.23;;;18.45;;
40931;SDS011;36257;46.052;12.540;2022-11-09T14:29:57;25.70;;;17.35;;
40931;SDS011;36257;46.052;12.540;2022-11-09T14:32:32;20.63;;;17.02;;
40931;SDS011;36257;46.052;12.540;2022-11-09T14:37:43;30.38;;;20.42;;
40931;SDS011;36257;46.052;12.540;2022-11-09T14:40:16;27.42;;;17.92;;
40931;SDS011;36257;46.052;12.540;2022-11-09T14:42:51;36.25;;;19.75;;
40931;SDS011;36257;46.052;12.540;2022-11-09T14:45:23;28.15;;;18.27;;
40931;SDS011;36257;46.052;12.540;2022-11-09T14:47:51;24.33;;;17.43;;
40931;SDS011;36257;46.052;12.540;2022-11-09T14:50:35;24.67;;;17.95;;
40931;SDS011;36257;46.052;12.540;2022-11-09T14:53:01;29.15;;;19.65;;
40931;SDS011;36257;46.052;12.540;2022-11-09T14:55:29;26.08;;;18.50;;
40931;SDS011;36257;46.052;12.540;2022-11-09T14:57:56;26.05;;;17.48;;
40931;SDS011;36257;46.052;12.540;2022-11-09T15:00:24;24.90;;;17.25;;
40931;SDS011;36257;46.052;12.540;2022-11-09T15:02:51;27.02;;;17.45;;
40931;SDS011;36257;46.052;12.540;2022-11-09T15:05:28;26.02;;;17.13;;
40931;SDS011;36257;46.052;12.540;2022-11-09T15:07:59;21.40;;;15.18;;
40931;SDS011;36257;46.052;12.540;2022-11-09T15:10:26;21.40;;;14.68;;
40931;SDS011;36257;46.052;12.540;2022-11-09T15:12:55;21.02;;;14.43;;
40931;SDS011;36257;46.052;12.540;2022-11-09T15:15:25;17.98;;;13.82;;
40931;SDS011;36257;46.052;12.540;2022-11-09T15:17:52;17.33;;;12.27;;
40931;SDS011;36257;46.052;12.540;2022-11-09T15:22:54;19.25;;;11.23;;
40931;SDS011;36257;46.052;12.540;2022-11-09T15:25:33;14.60;;;9.00;;
40931;SDS011;36257;46.052;12.540;2022-11-09T15:28:20;13.35;;;9.23;;
40931;SDS011;36257;46.052;12.540;2022-11-09T15:40:52;11.95;;;7.78;;
40931;SDS011;36257;46.052;12.540;2022-11-09T15:43:18;12.15;;;8.82;;
40931;SDS011;36257;46.052;12.540;2022-11-09T15:45:44;14.00;;;8.88;;
40931;SDS011;36257;46.052;12.540;2022-11-09T15:48:09;12.40;;;9.40;;
40931;SDS011;36257;46.052;12.540;2022-11-09T15:50:35;13.07;;;9.35;;
40931;SDS011;36257;46.052;12.540;2022-11-09T15:53:01;13.75;;;10.15;;
40931;SDS011;36257;46.052;12.540;2022-11-09T15:55:26;14.68;;;9.88;;
40931;SDS011;36257;46.052;12.540;2022-11-09T15:57:52;20.08;;;14.20;;
40931;SDS011;36257;46.052;12.540;2022-11-09T16:00:18;19.80;;;13.35;;
40931;SDS011;36257;46.052;12.540;2022-11-09T16:02:45;17.52;;;12.27;;
40931;SDS011;36257;46.052;12.540;2022-11-09T16:05:11;17.48;;;11.57;;
40931;SDS011;36257;46.052;12.540;2022-11-09T16:07:37;14.18;;;10.93;;
40931;SDS011;36257;46.052;12.540;2022-11-09T16:10:12;21.60;;;13.80;;
40931;SDS011;36257;46.052;12.540;2022-11-09T16:12:38;31.87;;;24.13;;
40931;SDS011;36257;46.052;12.540;2022-11-09T16:15:04;20.23;;;15.23;;
40931;SDS011;36257;46.052;12.540;2022-11-09T16:17:30;20.38;;;12.68;;
40931;SDS011;36257;46.052;12.540;2022-11-09T16:19:55;14.60;;;9.85;;
40931;SDS011;36257;46.052;12.540;2022-11-09T16:22:21;11.05;;;8.93;;
40931;SDS011;36257;46.052;12.540;2022-11-09T16:24:46;15.43;;;10.23;;